Historyczne dane pomiarowe

Dodano dane terminowe – wersja testowa.

Dane z okresu 1951-2019

Wersja bazy: 1.34 [2019-03-16, lista zmian], aktualizacja planowana na 2019-04-15

Dane meteo z obszaru Polski uzyskane na podstawie danych udostępnionych przez Instytut Meteorologii i Gospodarki Wodnej – Państwowy Instytut Badawczy.

 

Wybierz Datę:    

       

TemperaturaWilgotnośćWiatrCiśnienieOpadyŚniegCzas trwania zjawisk
 Stacja t tx tn tng RH VA  wxwx mslp ppp RRR   cm mm wxwxwxwxwxwxwx
1961-08-14 14.2 20.5 5.4 2.9 81.5- 6.3 1.7---- 0.0------------
1961-08-13 13.3 18.7 10.8 11.9 80.5- 6.0 1.7---- 0.0------------
1961-08-12 17.0 21.7 13.9 11.5 91.3- 7.7 1.3---- 2.9------------
1961-08-11 17.2 20.4 15.0 15.5 98.0- 5.3 1.3---- 21.0------------
1961-08-10 21.8 29.4 17.6 15.7 89.5- 3.3 0.3---- 30.2------------
1961-08-09 21.7 27.2 14.0 12.1 82.3- 6.7 1.7---- 8.6------------
1961-08-08 19.2 23.8 8.7 6.5 82.5- 4.7 2.7---- 0.0------------
1961-08-07 18.2 25.4 16.5 14.9 90.0- 6.3 2.3---- 0.4------------
1961-08-06 25.2 31.5 15.2 10.7 64.5- 2.7 3.0---- 0.0------------
1961-08-05 19.5 25.7 15.0 12.8 79.8- 3.7 2.3---- 0.0------------
1961-08-04 15.5 20.4 5.1 2.5 74.8- 6.7 3.0---- 0.0------------
1961-08-03 13.9 19.6 10.2 7.7 86.5- 4.7 3.0---- 0.0------------
1961-08-02 16.3 24.9 7.5 4.7 86.8- 5.0 1.0---- 4.1------------
1961-08-01 15.5 22.2 11.0 8.3 75.8- 1.3 5.7---- 0.0------------
1961-07-31 13.8 15.7 12.5 12.3 86.8- 7.7 5.3---- 5.2------------
1961-07-30 13.2 16.7 9.6 7.6 84.3- 7.7 1.7---- 2.8------------
1961-07-29 13.2 18.7 11.5 13.8 81.5- 6.7 3.3---- 0.0------------
1961-07-28 15.3 19.6 13.1 9.5 93.3- 7.7 1.7---- 21.8------------
1961-07-27 18.7 25.4 14.2 10.3 77.5- 7.3 3.3---- 6.5------------
1961-07-26 18.3 24.3 9.6 6.0 65.0- 3.0 3.3---- 0.0------------
1961-07-25 13.4 17.8 11.8 12.3 81.5- 6.0 2.3---- 0.0------------
1961-07-24 14.0 17.5 9.9 3.5 76.3- 7.0 5.0---- 0.0------------
1961-07-23 14.8 17.7 8.3 4.8 78.0- 6.7 4.3---- 0.0------------
1961-07-22 15.0 18.5 13.5 12.9 84.8- 7.3 5.7---- 0.0------------
1961-07-21 14.6 17.7 13.5 12.9 87.0- 8.0 5.7---- 0.0------------
1961-07-20 13.7 20.4 7.3 4.8 90.3- 6.7 3.0---- 3.6------------
1961-07-19 13.5 19.2 11.9 11.5 88.0- 6.3 4.3---- 8.0------------
1961-07-18 15.8 21.1 11.5 10.2 80.3- 6.7 4.7---- 2.0------------
1961-07-17 13.8 19.9 9.8 5.3 81.8- 7.7 4.3---- 1.9------------
1961-07-16 16.1 23.6 13.6 13.4 79.5- 6.0 2.7---- 0.0------------
1961-07-15 19.0 25.5 13.9 8.9 69.5- 5.3 2.0---- 24.3------------
1961-07-14 15.6 21.9 12.2 9.8 63.8- 6.3 6.0---- 1.4------------
1961-07-13 18.8 26.6 14.8 14.0 79.3- 5.0 5.0---- 3.6------------
1961-07-12 22.9 28.7 12.8 10.5 64.5- 2.3 2.0---- 0.0------------
1961-07-11 17.8 23.5 6.5 4.5 69.8- 7.3 2.3---- 2.0------------
1961-07-10 13.4 19.2 7.6 7.3 69.5- 1.7 4.3---- 1.8------------
1961-07-09 13.7 19.2 9.1 6.2 86.3- 5.0 4.7---- 4.0------------
1961-07-08 16.6 23.2 3.6 2.6 62.0- 4.3 2.0---- 0.2------------
1961-07-07 12.4 18.0 10.0 8.9 72.0- 5.0 3.7---- 0.0------------
1961-07-06 12.7 17.5 8.3 4.6 73.3- 6.0 7.3---- 1.4------------
1961-07-05 13.3 19.2 11.7 10.3 65.3- 4.7 7.3---- 0.0------------
1961-07-04 18.3 26.6 14.9 12.3 81.8- 6.0 3.0---- 0.0------------
1961-07-03 24.7 32.9 10.7 8.1 59.3- 1.7 2.3---- 0.0------------
1961-07-02 21.8 31.3 9.7 6.8 60.0- 0.0 0.7---- 0.0------------
1961-07-01 21.0 29.1 7.6 7.1 63.5- 0.7 0.3---- 0.0------------
1961-06-30 18.8 26.9 7.8 5.0 70.0- 0.3 0.7---- 0.0------------
1961-06-29 16.5 22.9 9.0 5.3 72.5- 2.3 2.3---- 0.0------------
1961-06-28 14.1 21.0 12.5 13.5 69.0- 3.7 5.7---- 0.0------------
1961-06-27 21.2 28.3 17.5 13.9 80.5- 4.3 2.7---- 5.9------------
1961-06-26 22.3 28.1 13.5 10.7 71.8- 4.0 2.0---- 0.0------------
1961-06-25 22.2 29.7 10.2 7.9 63.5- 0.3 2.3---- 0.0------------
1961-06-24 19.4 24.9 10.0 7.6 70.0- 6.3 4.3---- 0.0------------
1961-06-23 17.8 25.3 15.1 8.3 73.5- 3.0 4.3---- 0.0------------
1961-06-22 19.2 25.6 4.4 2.5 72.0- 2.7 2.3---- 0.9------------
1961-06-21 16.5 24.3 6.4 2.7 68.3- 1.7 1.3---- 0.0------------
1961-06-20 13.8 20.6 5.9 3.1 69.3- 3.0 1.3---- 0.0------------
1961-06-19 16.2 20.9 13.6 11.4 80.0- 5.3 2.7---- 2.8------------
1961-06-18 20.3 27.2 8.9 6.1 68.8- 0.0 2.7---- 0.0------------
1961-06-17 16.6 22.9 4.5 1.0 70.5- 3.7 1.0---- 0.0------------
1961-06-16 13.7 20.2 4.8 1.1 72.8- 4.0 2.7---- 0.0------------
438.9 ms

 

Źródłem pochodzenia danych jest Instytut Meteorologii i Gospodarki Wodnej – Państwowy Instytut Badawczy. Dane Instytutu Meteorologii i Gospodarki Wodnej – Państwowego Instytutu Badawczego zostały przetworzone.

Dane źródłowe można odnaleźć na stronie https://dane.imgw.pl